KRIL/RIL METAR and TAF weather

Enter ICAO airport designator
Station Type Date Time Source
KRIL METAR 2019/08/22 03:53 UTC NOAA

KRIL 220353Z AUTO 07006KT 10SM CLR 21/M02 A3002 RMK AO2 SLP097 T02111022


Station Type Date Time Source
KRIL Decoded METAR 2019/08/22 03:53 UTC NOAA

Station name not available
Aug 21, 2019 - 11:53 PM EDT / 2019.08.22 0353 UTC
Wind: from the ENE (070 degrees) at 7 MPH (6 KT):0
Visibility: 10 mile(s):0
Sky conditions: clear
Temperature: 70.0 F (21.1 C)
Dew Point: 28.0 F (-2.2 C)
Relative Humidity: 20%
Pressure (altimeter): 30.02 in. Hg (1016 hPa)
ob: KRIL 220353Z AUTO 07006KT 10SM CLR 21/M02 A3002 RMK AO2 SLP097 T02111022
cycle: 4

Station Type Date Time Source
KRIL TAF 2019/08/21 18:42 UTC NOAA

TAF KRIL 211738Z 2118/2218 00000KT P6SM SKC
FM211900 30008KT P6SM FEW150 FEW250
FM220300 14004KT P6SM SKC
FM221400 06003KT P6SM FEW150 FEW250

Example: see airport list